sensor_id;sensor_type;location;lat;lon;timestamp;pressure;altitude;pressure_sealevel;temperature;humidity
66801;BME280;53703;50.326;19.122;2023-09-30T00:01:21;99033.87;;;17.34;62.04
66801;BME280;53703;50.326;19.122;2023-09-30T00:04:15;99032.48;;;17.37;61.95
66801;BME280;53703;50.326;19.122;2023-09-30T00:07:09;99035.52;;;17.36;62.07
66801;BME280;53703;50.326;19.122;2023-09-30T00:10:05;99038.38;;;17.39;61.94
66801;BME280;53703;50.326;19.122;2023-09-30T00:12:59;99036.62;;;17.34;62.02
66801;BME280;53703;50.326;19.122;2023-09-30T00:15:53;99032.20;;;17.36;61.99
66801;BME280;53703;50.326;19.122;2023-09-30T00:18:47;99033.22;;;17.34;62.04
66801;BME280;53703;50.326;19.122;2023-09-30T00:21:41;99032.07;;;17.39;61.99
66801;BME280;53703;50.326;19.122;2023-09-30T00:24:36;99030.09;;;17.35;61.96
66801;BME280;53703;50.326;19.122;2023-09-30T00:27:30;99025.40;;;17.33;62.01
66801;BME280;53703;50.326;19.122;2023-09-30T00:30:25;99024.75;;;17.31;62.06
66801;BME280;53703;50.326;19.122;2023-09-30T00:33:20;99017.79;;;17.34;61.74
66801;BME280;53703;50.326;19.122;2023-09-30T00:36:14;99017.18;;;17.35;61.86
66801;BME280;53703;50.326;19.122;2023-09-30T00:39:10;99010.10;;;17.33;61.84
66801;BME280;53703;50.326;19.122;2023-09-30T00:42:04;99009.06;;;17.31;61.79
66801;BME280;53703;50.326;19.122;2023-09-30T00:44:59;99009.45;;;17.30;61.81
66801;BME280;53703;50.326;19.122;2023-09-30T00:47:53;99013.17;;;17.27;61.89
66801;BME280;53703;50.326;19.122;2023-09-30T00:50:48;99009.55;;;17.31;61.80
66801;BME280;53703;50.326;19.122;2023-09-30T00:53:42;99006.13;;;17.28;61.91
66801;BME280;53703;50.326;19.122;2023-09-30T00:56:39;99001.23;;;17.30;61.71
66801;BME280;53703;50.326;19.122;2023-09-30T00:59:37;99002.95;;;17.27;61.97
66801;BME280;53703;50.326;19.122;2023-09-30T01:02:32;99002.70;;;17.31;61.94
66801;BME280;53703;50.326;19.122;2023-09-30T01:05:28;99004.70;;;17.32;62.01
66801;BME280;53703;50.326;19.122;2023-09-30T01:08:22;99003.59;;;17.38;61.84
66801;BME280;53703;50.326;19.122;2023-09-30T01:11:04;99004.17;;;17.33;61.93
66801;BME280;53703;50.326;19.122;2023-09-30T01:13:58;99002.89;;;17.32;62.22
66801;BME280;53703;50.326;19.122;2023-09-30T01:16:53;99005.20;;;17.26;62.28
66801;BME280;53703;50.326;19.122;2023-09-30T01:19:48;99003.23;;;17.29;62.35
66801;BME280;53703;50.326;19.122;2023-09-30T01:22:43;99002.11;;;17.26;62.45
66801;BME280;53703;50.326;19.122;2023-09-30T01:25:38;99005.23;;;17.25;62.51
66801;BME280;53703;50.326;19.122;2023-09-30T01:28:33;99003.62;;;17.28;62.28
66801;BME280;53703;50.326;19.122;2023-09-30T01:31:27;99005.59;;;17.22;62.42
66801;BME280;53703;50.326;19.122;2023-09-30T01:34:21;99003.23;;;17.24;62.50
66801;BME280;53703;50.326;19.122;2023-09-30T01:37:15;99013.08;;;17.24;62.50
66801;BME280;53703;50.326;19.122;2023-09-30T01:40:11;99010.23;;;17.21;62.64
66801;BME280;53703;50.326;19.122;2023-09-30T01:43:06;99013.52;;;17.21;62.69
66801;BME280;53703;50.326;19.122;2023-09-30T01:46:00;99009.36;;;17.21;62.91
66801;BME280;53703;50.326;19.122;2023-09-30T01:48:55;99011.85;;;17.21;63.03
66801;BME280;53703;50.326;19.122;2023-09-30T01:51:50;99009.33;;;17.21;63.05
66801;BME280;53703;50.326;19.122;2023-09-30T01:54:35;99002.99;;;17.26;62.85
66801;BME280;53703;50.326;19.122;2023-09-30T01:57:30;99007.73;;;17.24;62.94
66801;BME280;53703;50.326;19.122;2023-09-30T02:00:25;99005.45;;;17.28;62.94
66801;BME280;53703;50.326;19.122;2023-09-30T02:03:21;98997.87;;;17.31;62.86
66801;BME280;53703;50.326;19.122;2023-09-30T02:06:16;98994.60;;;17.30;62.99
66801;BME280;53703;50.326;19.122;2023-09-30T02:09:10;98993.39;;;17.24;63.20
66801;BME280;53703;50.326;19.122;2023-09-30T02:12:06;98996.34;;;17.25;63.13
66801;BME280;53703;50.326;19.122;2023-09-30T02:15:02;98990.73;;;17.31;63.00
66801;BME280;53703;50.326;19.122;2023-09-30T02:17:56;98988.69;;;17.30;63.30
66801;BME280;53703;50.326;19.122;2023-09-30T02:20:53;98988.47;;;17.24;63.67
66801;BME280;53703;50.326;19.122;2023-09-30T02:23:48;98990.76;;;17.27;63.64
66801;BME280;53703;50.326;19.122;2023-09-30T02:26:42;98993.52;;;17.33;63.48
66801;BME280;53703;50.326;19.122;2023-09-30T02:29:36;98990.67;;;17.32;63.67
66801;BME280;53703;50.326;19.122;2023-09-30T02:32:31;98989.16;;;17.33;63.61
66801;BME280;53703;50.326;19.122;2023-09-30T02:35:26;98990.44;;;17.30;63.96
66801;BME280;53703;50.326;19.122;2023-09-30T02:38:20;98992.36;;;17.37;63.62
66801;BME280;53703;50.326;19.122;2023-09-30T02:41:17;98990.62;;;17.37;63.79
66801;BME280;53703;50.326;19.122;2023-09-30T02:44:11;98991.13;;;17.34;63.87
66801;BME280;53703;50.326;19.122;2023-09-30T02:47:05;98994.86;;;17.37;63.89
66801;BME280;53703;50.326;19.122;2023-09-30T02:50:00;98991.19;;;17.35;64.08
66801;BME280;53703;50.326;19.122;2023-09-30T02:52:54;98994.95;;;17.30;64.26
66801;BME280;53703;50.326;19.122;2023-09-30T02:55:49;98994.05;;;17.34;64.26
66801;BME280;53703;50.326;19.122;2023-09-30T02:58:50;99000.66;;;17.38;64.04
66801;BME280;53703;50.326;19.122;2023-09-30T03:01:45;98996.61;;;17.35;64.45
66801;BME280;53703;50.326;19.122;2023-09-30T03:04:40;98994.95;;;17.30;64.79
66801;BME280;53703;50.326;19.122;2023-09-30T03:07:36;98999.29;;;17.35;64.71
66801;BME280;53703;50.326;19.122;2023-09-30T03:10:31;99001.16;;;17.32;64.88
66801;BME280;53703;50.326;19.122;2023-09-30T03:13:25;99003.17;;;17.32;65.18
66801;BME280;53703;50.326;19.122;2023-09-30T03:16:20;99000.56;;;17.29;65.61
66801;BME280;53703;50.326;19.122;2023-09-30T03:19:14;98992.69;;;17.29;65.95
66801;BME280;53703;50.326;19.122;2023-09-30T03:22:09;98990.99;;;17.28;66.17
66801;BME280;53703;50.326;19.122;2023-09-30T03:25:05;98988.70;;;17.30;66.17
66801;BME280;53703;50.326;19.122;2023-09-30T03:28:00;98989.23;;;17.34;66.25
66801;BME280;53703;50.326;19.122;2023-09-30T03:30:54;98989.40;;;17.34;66.60
66801;BME280;53703;50.326;19.122;2023-09-30T03:33:49;98986.33;;;17.34;66.67
66801;BME280;53703;50.326;19.122;2023-09-30T03:36:47;98986.64;;;17.34;66.99
66801;BME280;53703;50.326;19.122;2023-09-30T03:39:42;98988.88;;;17.35;67.19
66801;BME280;53703;50.326;19.122;2023-09-30T03:42:36;98989.98;;;17.35;67.20
66801;BME280;53703;50.326;19.122;2023-09-30T03:45:32;98992.65;;;17.38;67.30
66801;BME280;53703;50.326;19.122;2023-09-30T03:48:26;98990.60;;;17.30;67.85
66801;BME280;53703;50.326;19.122;2023-09-30T03:51:21;98992.67;;;17.33;67.68
66801;BME280;53703;50.326;19.122;2023-09-30T03:54:18;98998.41;;;17.35;67.69
66801;BME280;53703;50.326;19.122;2023-09-30T03:57:12;99001.66;;;17.39;67.76
66801;BME280;53703;50.326;19.122;2023-09-30T04:00:11;99000.61;;;17.41;67.89
66801;BME280;53703;50.326;19.122;2023-09-30T04:03:09;99001.69;;;17.40;68.13
66801;BME280;53703;50.326;19.122;2023-09-30T04:06:04;99000.80;;;17.37;68.19
66801;BME280;53703;50.326;19.122;2023-09-30T04:08:59;98999.53;;;17.41;68.09
66801;BME280;53703;50.326;19.122;2023-09-30T04:11:57;99003.63;;;17.45;68.17
66801;BME280;53703;50.326;19.122;2023-09-30T04:14:52;99002.53;;;17.37;68.60
66801;BME280;53703;50.326;19.122;2023-09-30T04:17:47;99006.75;;;17.40;68.42
66801;BME280;53703;50.326;19.122;2023-09-30T04:20:41;99014.84;;;17.46;68.44
66801;BME280;53703;50.326;19.122;2023-09-30T04:23:39;99015.66;;;17.47;68.45
66801;BME280;53703;50.326;19.122;2023-09-30T04:26:35;99018.64;;;17.46;68.61
66801;BME280;53703;50.326;19.122;2023-09-30T04:29:29;99017.73;;;17.45;68.59
66801;BME280;53703;50.326;19.122;2023-09-30T04:32:23;99015.05;;;17.45;68.74
66801;BME280;53703;50.326;19.122;2023-09-30T04:35:20;99008.31;;;17.47;68.78
66801;BME280;53703;50.326;19.122;2023-09-30T04:38:15;99009.17;;;17.42;69.06
66801;BME280;53703;50.326;19.122;2023-09-30T04:41:04;99011.13;;;17.46;69.09
66801;BME280;53703;50.326;19.122;2023-09-30T04:44:00;99011.36;;;17.41;69.48
66801;BME280;53703;50.326;19.122;2023-09-30T04:46:54;99017.23;;;17.45;69.53
66801;BME280;53703;50.326;19.122;2023-09-30T04:49:49;99024.31;;;17.44;69.69
66801;BME280;53703;50.326;19.122;2023-09-30T04:52:44;99023.43;;;17.44;69.74
66801;BME280;53703;50.326;19.122;2023-09-30T04:55:40;99021.77;;;17.41;69.85
66801;BME280;53703;50.326;19.122;2023-09-30T04:58:34;99028.64;;;17.44;69.92
66801;BME280;53703;50.326;19.122;2023-09-30T05:01:28;99029.32;;;17.47;69.80
66801;BME280;53703;50.326;19.122;2023-09-30T05:04:22;99028.03;;;17.45;70.18
66801;BME280;53703;50.326;19.122;2023-09-30T05:07:18;99038.86;;;17.47;70.36
66801;BME280;53703;50.326;19.122;2023-09-30T05:10:13;99040.16;;;17.46;70.26
66801;BME280;53703;50.326;19.122;2023-09-30T05:13:08;99050.09;;;17.44;70.16
66801;BME280;53703;50.326;19.122;2023-09-30T05:16:03;99052.50;;;17.43;70.34
66801;BME280;53703;50.326;19.122;2023-09-30T05:18:58;99058.70;;;17.47;70.14
66801;BME280;53703;50.326;19.122;2023-09-30T05:21:53;99062.79;;;17.46;70.28
66801;BME280;53703;50.326;19.122;2023-09-30T05:24:48;99061.77;;;17.48;70.28
66801;BME280;53703;50.326;19.122;2023-09-30T05:27:42;99063.14;;;17.47;70.49
66801;BME280;53703;50.326;19.122;2023-09-30T05:30:36;99065.51;;;17.47;70.60
66801;BME280;53703;50.326;19.122;2023-09-30T05:33:30;99069.19;;;17.51;70.68
66801;BME280;53703;50.326;19.122;2023-09-30T05:36:25;99076.17;;;17.48;70.94
66801;BME280;53703;50.326;19.122;2023-09-30T05:39:20;99075.45;;;17.50;71.05
66801;BME280;53703;50.326;19.122;2023-09-30T05:42:15;99081.46;;;17.48;71.42
66801;BME280;53703;50.326;19.122;2023-09-30T05:45:11;99082.15;;;17.54;71.40
66801;BME280;53703;50.326;19.122;2023-09-30T05:48:07;99092.69;;;17.51;71.41
66801;BME280;53703;50.326;19.122;2023-09-30T05:51:01;99098.35;;;17.53;71.27
66801;BME280;53703;50.326;19.122;2023-09-30T05:53:55;99098.86;;;17.54;71.47
66801;BME280;53703;50.326;19.122;2023-09-30T05:56:50;99103.41;;;17.62;71.26
66801;BME280;53703;50.326;19.122;2023-09-30T05:59:44;99111.56;;;17.59;71.29
66801;BME280;53703;50.326;19.122;2023-09-30T06:02:39;99114.70;;;17.69;70.99
66801;BME280;53703;50.326;19.122;2023-09-30T06:05:34;99112.67;;;17.69;71.00
66801;BME280;53703;50.326;19.122;2023-09-30T06:08:28;99118.25;;;17.68;71.24
66801;BME280;53703;50.326;19.122;2023-09-30T06:11:24;99114.65;;;17.77;70.95
66801;BME280;53703;50.326;19.122;2023-09-30T06:14:20;99114.30;;;17.58;71.91
66801;BME280;53703;50.326;19.122;2023-09-30T06:17:15;99117.59;;;17.60;72.02
66801;BME280;53703;50.326;19.122;2023-09-30T06:20:12;99116.96;;;17.62;71.82
66801;BME280;53703;50.326;19.122;2023-09-30T06:23:10;99120.08;;;17.57;71.87
66801;BME280;53703;50.326;19.122;2023-09-30T06:26:05;99121.53;;;17.59;72.07
66801;BME280;53703;50.326;19.122;2023-09-30T06:28:59;99130.27;;;17.59;72.30
66801;BME280;53703;50.326;19.122;2023-09-30T06:31:53;99133.58;;;17.61;72.08
66801;BME280;53703;50.326;19.122;2023-09-30T06:34:50;99137.80;;;17.60;72.11
66801;BME280;53703;50.326;19.122;2023-09-30T06:37:44;99139.44;;;17.60;72.14
66801;BME280;53703;50.326;19.122;2023-09-30T06:40:39;99141.22;;;17.61;72.19
66801;BME280;53703;50.326;19.122;2023-09-30T06:43:36;99140.09;;;17.69;72.09
66801;BME280;53703;50.326;19.122;2023-09-30T06:46:30;99144.44;;;17.66;71.97
66801;BME280;53703;50.326;19.122;2023-09-30T06:49:25;99143.09;;;17.77;72.14
66801;BME280;53703;50.326;19.122;2023-09-30T06:52:19;99150.39;;;17.84;71.55
66801;BME280;53703;50.326;19.122;2023-09-30T06:55:14;99154.62;;;17.73;72.79
66801;BME280;53703;50.326;19.122;2023-09-30T06:58:09;99151.71;;;17.80;72.77
66801;BME280;53703;50.326;19.122;2023-09-30T07:01:03;99154.84;;;17.78;73.14
66801;BME280;53703;50.326;19.122;2023-09-30T07:03:58;99158.63;;;17.79;73.46
66801;BME280;53703;50.326;19.122;2023-09-30T07:06:53;99158.84;;;18.03;72.25
66801;BME280;53703;50.326;19.122;2023-09-30T07:09:48;99161.48;;;17.87;74.12
66801;BME280;53703;50.326;19.122;2023-09-30T07:12:42;99163.43;;;17.89;74.39
66801;BME280;53703;50.326;19.122;2023-09-30T07:15:37;99169.63;;;18.00;72.95
66801;BME280;53703;50.326;19.122;2023-09-30T07:18:31;99169.00;;;18.01;73.43
66801;BME280;53703;50.326;19.122;2023-09-30T07:21:25;99173.67;;;17.97;74.92
66801;BME280;53703;50.326;19.122;2023-09-30T07:24:19;99171.98;;;17.92;75.75
66801;BME280;53703;50.326;19.122;2023-09-30T07:27:17;99172.05;;;17.92;76.09
66801;BME280;53703;50.326;19.122;2023-09-30T07:30:20;99174.69;;;18.01;75.51
66801;BME280;53703;50.326;19.122;2023-09-30T07:33:14;99172.67;;;17.93;76.79
66801;BME280;53703;50.326;19.122;2023-09-30T07:36:09;99172.09;;;17.91;76.19
66801;BME280;53703;50.326;19.122;2023-09-30T07:39:03;99176.84;;;17.95;76.54
66801;BME280;53703;50.326;19.122;2023-09-30T07:41:58;99182.00;;;17.92;77.16
66801;BME280;53703;50.326;19.122;2023-09-30T07:44:52;99186.09;;;17.92;77.09
66801;BME280;53703;50.326;19.122;2023-09-30T07:47:47;99185.90;;;17.97;76.73
66801;BME280;53703;50.326;19.122;2023-09-30T07:50:32;99188.48;;;17.99;76.88
66801;BME280;53703;50.326;19.122;2023-09-30T07:53:27;99191.23;;;17.96;77.14
66801;BME280;53703;50.326;19.122;2023-09-30T07:56:21;99197.50;;;18.01;77.20
66801;BME280;53703;50.326;19.122;2023-09-30T07:59:16;99200.64;;;17.97;77.54
66801;BME280;53703;50.326;19.122;2023-09-30T08:02:10;99200.39;;;17.96;77.50
66801;BME280;53703;50.326;19.122;2023-09-30T08:05:06;99199.69;;;17.97;77.66
66801;BME280;53703;50.326;19.122;2023-09-30T08:08:01;99209.71;;;18.01;77.47
66801;BME280;53703;50.326;19.122;2023-09-30T08:10:55;99213.89;;;17.99;77.91
66801;BME280;53703;50.326;19.122;2023-09-30T08:13:49;99212.98;;;18.03;77.80
66801;BME280;53703;50.326;19.122;2023-09-30T08:16:44;99212.13;;;18.02;78.07
66801;BME280;53703;50.326;19.122;2023-09-30T08:19:38;99209.27;;;17.99;78.44
66801;BME280;53703;50.326;19.122;2023-09-30T08:22:32;99214.02;;;18.02;78.65
66801;BME280;53703;50.326;19.122;2023-09-30T08:25:26;99217.10;;;18.04;78.79
66801;BME280;53703;50.326;19.122;2023-09-30T08:28:21;99216.25;;;18.13;78.48
66801;BME280;53703;50.326;19.122;2023-09-30T08:31:15;99217.32;;;18.10;78.90
66801;BME280;53703;50.326;19.122;2023-09-30T08:34:11;99215.79;;;18.11;79.03
66801;BME280;53703;50.326;19.122;2023-09-30T08:37:05;99219.02;;;18.13;78.99
66801;BME280;53703;50.326;19.122;2023-09-30T08:40:00;99218.31;;;18.15;79.02
66801;BME280;53703;50.326;19.122;2023-09-30T08:42:57;99212.42;;;18.13;79.07
66801;BME280;53703;50.326;19.122;2023-09-30T08:45:55;99213.15;;;18.20;78.83
66801;BME280;53703;50.326;19.122;2023-09-30T08:48:49;99207.87;;;18.22;78.59
66801;BME280;53703;50.326;19.122;2023-09-30T08:51:44;99209.80;;;18.24;78.48
66801;BME280;53703;50.326;19.122;2023-09-30T08:54:39;99211.25;;;18.16;79.35
66801;BME280;53703;50.326;19.122;2023-09-30T08:57:33;99208.64;;;18.20;79.11
66801;BME280;53703;50.326;19.122;2023-09-30T09:00:31;99206.02;;;18.17;79.46
66801;BME280;53703;50.326;19.122;2023-09-30T09:03:29;99211.80;;;18.22;79.07
66801;BME280;53703;50.326;19.122;2023-09-30T09:06:25;99214.11;;;18.18;79.48
66801;BME280;53703;50.326;19.122;2023-09-30T09:09:20;99216.54;;;18.18;79.38
66801;BME280;53703;50.326;19.122;2023-09-30T09:12:23;99219.73;;;18.17;79.68
66801;BME280;53703;50.326;19.122;2023-09-30T09:15:28;99221.80;;;18.18;79.57
66801;BME280;53703;50.326;19.122;2023-09-30T09:18:35;99222.97;;;18.23;78.93
66801;BME280;53703;50.326;19.122;2023-09-30T09:21:29;99222.30;;;18.18;79.70
66801;BME280;53703;50.326;19.122;2023-09-30T09:24:32;99222.25;;;18.23;79.25
66801;BME280;53703;50.326;19.122;2023-09-30T09:27:26;99222.37;;;18.20;79.54
66801;BME280;53703;50.326;19.122;2023-09-30T09:30:23;99226.70;;;18.18;79.97
66801;BME280;53703;50.326;19.122;2023-09-30T09:33:17;99233.65;;;18.20;79.64
66801;BME280;53703;50.326;19.122;2023-09-30T09:36:11;99232.14;;;18.19;79.78
66801;BME280;53703;50.326;19.122;2023-09-30T09:39:06;99235.09;;;18.20;79.40
66801;BME280;53703;50.326;19.122;2023-09-30T09:42:01;99241.14;;;18.22;79.43
66801;BME280;53703;50.326;19.122;2023-09-30T09:44:59;99242.16;;;18.21;79.66
66801;BME280;53703;50.326;19.122;2023-09-30T09:47:54;99244.41;;;18.23;79.61
66801;BME280;53703;50.326;19.122;2023-09-30T09:50:50;99244.87;;;18.20;79.85
66801;BME280;53703;50.326;19.122;2023-09-30T09:53:45;99243.63;;;18.23;79.87
66801;BME280;53703;50.326;19.122;2023-09-30T09:56:42;99246.40;;;18.23;79.80
66801;BME280;53703;50.326;19.122;2023-09-30T09:59:37;99244.29;;;18.22;80.03
66801;BME280;53703;50.326;19.122;2023-09-30T10:02:34;99241.93;;;18.22;80.12
66801;BME280;53703;50.326;19.122;2023-09-30T10:05:28;99246.38;;;18.22;80.05
66801;BME280;53703;50.326;19.122;2023-09-30T10:08:38;99245.62;;;18.23;80.22
66801;BME280;53703;50.326;19.122;2023-09-30T10:11:34;99246.30;;;18.24;80.03
66801;BME280;53703;50.326;19.122;2023-09-30T10:14:35;99243.51;;;18.24;80.24
66801;BME280;53703;50.326;19.122;2023-09-30T10:17:59;99245.92;;;18.25;80.08
66801;BME280;53703;50.326;19.122;2023-09-30T10:21:20;99250.52;;;18.28;80.02
66801;BME280;53703;50.326;19.122;2023-09-30T10:24:33;99253.77;;;18.24;80.29
66801;BME280;53703;50.326;19.122;2023-09-30T10:27:39;99252.30;;;18.25;80.55
66801;BME280;53703;50.326;19.122;2023-09-30T10:30:38;99253.82;;;18.27;80.52
66801;BME280;53703;50.326;19.122;2023-09-30T10:33:32;99254.23;;;18.27;80.32
66801;BME280;53703;50.326;19.122;2023-09-30T10:36:31;99257.84;;;18.27;80.26
66801;BME280;53703;50.326;19.122;2023-09-30T10:39:57;99256.39;;;18.29;80.19
66801;BME280;53703;50.326;19.122;2023-09-30T10:42:52;99260.53;;;18.27;80.24
66801;BME280;53703;50.326;19.122;2023-09-30T10:45:48;99259.22;;;18.26;80.30
66801;BME280;53703;50.326;19.122;2023-09-30T10:48:43;99260.74;;;18.25;80.54
66801;BME280;53703;50.326;19.122;2023-09-30T10:51:39;99262.45;;;18.28;80.16
66801;BME280;53703;50.326;19.122;2023-09-30T10:54:34;99258.79;;;18.27;80.40
66801;BME280;53703;50.326;19.122;2023-09-30T10:57:32;99256.20;;;18.25;80.71
66801;BME280;53703;50.326;19.122;2023-09-30T11:00:26;99255.98;;;18.28;80.38
66801;BME280;53703;50.326;19.122;2023-09-30T11:03:22;99257.92;;;18.29;80.49
66801;BME280;53703;50.326;19.122;2023-09-30T11:06:20;99259.61;;;18.30;80.89
66801;BME280;53703;50.326;19.122;2023-09-30T11:09:20;99261.13;;;18.32;80.85
66801;BME280;53703;50.326;19.122;2023-09-30T11:12:17;99260.56;;;18.32;81.11
66801;BME280;53703;50.326;19.122;2023-09-30T11:15:12;99260.76;;;18.33;80.99
66801;BME280;53703;50.326;19.122;2023-09-30T11:18:18;99257.68;;;18.31;81.17
66801;BME280;53703;50.326;19.122;2023-09-30T11:21:13;99262.49;;;18.36;80.64
66801;BME280;53703;50.326;19.122;2023-09-30T11:24:08;99258.64;;;18.38;80.42
66801;BME280;53703;50.326;19.122;2023-09-30T11:27:04;99264.55;;;18.33;80.73
66801;BME280;53703;50.326;19.122;2023-09-30T11:30:01;99266.12;;;18.33;80.87
66801;BME280;53703;50.326;19.122;2023-09-30T11:33:03;99267.75;;;18.32;81.10
66801;BME280;53703;50.326;19.122;2023-09-30T11:36:04;99273.48;;;18.38;80.35
66801;BME280;53703;50.326;19.122;2023-09-30T11:38:59;99280.46;;;18.37;80.05
66801;BME280;53703;50.326;19.122;2023-09-30T11:41:58;99281.02;;;18.37;79.79
66801;BME280;53703;50.326;19.122;2023-09-30T11:44:54;99281.01;;;18.32;79.82
66801;BME280;53703;50.326;19.122;2023-09-30T11:47:52;99284.46;;;18.36;79.56
66801;BME280;53703;50.326;19.122;2023-09-30T11:50:50;99285.61;;;18.31;79.76
66801;BME280;53703;50.326;19.122;2023-09-30T11:53:50;99289.27;;;18.34;79.31
66801;BME280;53703;50.326;19.122;2023-09-30T11:56:44;99296.85;;;18.31;79.05
66801;BME280;53703;50.326;19.122;2023-09-30T11:59:40;99294.27;;;18.32;78.69
66801;BME280;53703;50.326;19.122;2023-09-30T12:02:35;99300.75;;;18.30;78.76
66801;BME280;53703;50.326;19.122;2023-09-30T12:05:33;99302.95;;;18.34;78.37
66801;BME280;53703;50.326;19.122;2023-09-30T12:08:29;99305.41;;;18.35;77.64
66801;BME280;53703;50.326;19.122;2023-09-30T12:11:23;99309.74;;;18.32;77.22
66801;BME280;53703;50.326;19.122;2023-09-30T12:14:18;99306.23;;;18.27;77.05
66801;BME280;53703;50.326;19.122;2023-09-30T12:17:13;99305.46;;;18.26;76.19
66801;BME280;53703;50.326;19.122;2023-09-30T12:20:10;99307.30;;;18.35;75.70
66801;BME280;53703;50.326;19.122;2023-09-30T12:23:07;99308.38;;;18.29;75.66
66801;BME280;53703;50.326;19.122;2023-09-30T12:26:02;99305.40;;;18.26;75.43
66801;BME280;53703;50.326;19.122;2023-09-30T12:29:07;99306.73;;;18.13;76.38
66801;BME280;53703;50.326;19.122;2023-09-30T12:32:02;99309.27;;;18.16;76.16
66801;BME280;53703;50.326;19.122;2023-09-30T12:34:58;99316.36;;;18.21;75.52
66801;BME280;53703;50.326;19.122;2023-09-30T12:37:52;99323.83;;;18.25;75.05
66801;BME280;53703;50.326;19.122;2023-09-30T12:40:46;99326.43;;;18.27;74.91
66801;BME280;53703;50.326;19.122;2023-09-30T12:43:41;99331.39;;;18.29;74.69
66801;BME280;53703;50.326;19.122;2023-09-30T12:46:35;99336.97;;;18.26;74.49
66801;BME280;53703;50.326;19.122;2023-09-30T12:49:30;99334.48;;;18.24;74.61
66801;BME280;53703;50.326;19.122;2023-09-30T12:52:24;99336.73;;;18.36;73.85
66801;BME280;53703;50.326;19.122;2023-09-30T12:55:19;99337.42;;;18.40;73.87
66801;BME280;53703;50.326;19.122;2023-09-30T12:58:13;99341.99;;;18.38;73.97
66801;BME280;53703;50.326;19.122;2023-09-30T13:01:08;99340.31;;;18.31;74.26
66801;BME280;53703;50.326;19.122;2023-09-30T13:04:14;99339.76;;;18.30;74.28
66801;BME280;53703;50.326;19.122;2023-09-30T13:07:09;99337.81;;;18.25;74.28
66801;BME280;53703;50.326;19.122;2023-09-30T13:10:04;99336.17;;;18.18;74.84
66801;BME280;53703;50.326;19.122;2023-09-30T13:13:00;99336.36;;;18.14;75.07
66801;BME280;53703;50.326;19.122;2023-09-30T13:15:55;99338.44;;;18.21;74.63
66801;BME280;53703;50.326;19.122;2023-09-30T13:18:49;99337.72;;;18.29;73.92
66801;BME280;53703;50.326;19.122;2023-09-30T13:21:45;99338.16;;;18.39;73.26
66801;BME280;53703;50.326;19.122;2023-09-30T13:24:39;99342.19;;;18.32;73.28
66801;BME280;53703;50.326;19.122;2023-09-30T13:27:35;99340.73;;;18.33;73.13
66801;BME280;53703;50.326;19.122;2023-09-30T13:30:29;99337.14;;;18.39;72.63
66801;BME280;53703;50.326;19.122;2023-09-30T13:33:23;99344.84;;;18.31;73.05
66801;BME280;53703;50.326;19.122;2023-09-30T13:36:17;99344.38;;;18.26;73.41
66801;BME280;53703;50.326;19.122;2023-09-30T13:39:11;99344.89;;;18.27;73.59
66801;BME280;53703;50.326;19.122;2023-09-30T13:42:07;99348.35;;;18.24;73.58
66801;BME280;53703;50.326;19.122;2023-09-30T13:44:46;99346.21;;;18.24;73.79
66801;BME280;53703;50.326;19.122;2023-09-30T13:47:40;99348.65;;;18.24;73.52
66801;BME280;53703;50.326;19.122;2023-09-30T13:50:34;99342.45;;;18.23;73.15
66801;BME280;53703;50.326;19.122;2023-09-30T13:53:30;99345.08;;;18.23;73.15
66801;BME280;53703;50.326;19.122;2023-09-30T13:56:25;99346.10;;;18.27;73.05
66801;BME280;53703;50.326;19.122;2023-09-30T13:59:20;99349.42;;;18.24;73.09
66801;BME280;53703;50.326;19.122;2023-09-30T14:02:14;99348.08;;;18.31;72.94
66801;BME280;53703;50.326;19.122;2023-09-30T14:05:11;99352.63;;;18.36;72.50
66801;BME280;53703;50.326;19.122;2023-09-30T14:08:06;99343.02;;;18.34;72.34
66801;BME280;53703;50.326;19.122;2023-09-30T14:11:01;99343.80;;;18.35;72.18
66801;BME280;53703;50.326;19.122;2023-09-30T14:13:55;99342.23;;;18.31;72.35
66801;BME280;53703;50.326;19.122;2023-09-30T14:16:49;99337.45;;;18.30;72.43
66801;BME280;53703;50.326;19.122;2023-09-30T14:19:43;99338.77;;;18.34;72.19
66801;BME280;53703;50.326;19.122;2023-09-30T14:22:37;99334.19;;;18.38;71.88
66801;BME280;53703;50.326;19.122;2023-09-30T14:25:31;99336.33;;;18.34;71.99
66801;BME280;53703;50.326;19.122;2023-09-30T14:28:25;99337.81;;;18.36;71.54
66801;BME280;53703;50.326;19.122;2023-09-30T14:31:19;99335.27;;;18.37;71.26
66801;BME280;53703;50.326;19.122;2023-09-30T14:34:14;99337.05;;;18.38;71.38
66801;BME280;53703;50.326;19.122;2023-09-30T14:37:08;99338.36;;;18.36;71.53
66801;BME280;53703;50.326;19.122;2023-09-30T14:40:03;99339.56;;;18.31;71.28
66801;BME280;53703;50.326;19.122;2023-09-30T14:42:58;99341.39;;;18.34;70.81
66801;BME280;53703;50.326;19.122;2023-09-30T14:45:54;99337.83;;;18.29;70.93
66801;BME280;53703;50.326;19.122;2023-09-30T14:48:48;99339.73;;;18.30;70.68
66801;BME280;53703;50.326;19.122;2023-09-30T14:51:42;99335.96;;;18.24;70.85
66801;BME280;53703;50.326;19.122;2023-09-30T14:54:37;99342.56;;;18.24;70.80
66801;BME280;53703;50.326;19.122;2023-09-30T14:57:32;99346.52;;;18.26;70.55
66801;BME280;53703;50.326;19.122;2023-09-30T15:00:26;99343.10;;;18.27;70.31
66801;BME280;53703;50.326;19.122;2023-09-30T15:03:21;99344.46;;;18.28;69.98
66801;BME280;53703;50.326;19.122;2023-09-30T15:06:15;99347.98;;;18.23;70.01
66801;BME280;53703;50.326;19.122;2023-09-30T15:09:09;99354.80;;;18.26;69.54
66801;BME280;53703;50.326;19.122;2023-09-30T15:12:05;99358.52;;;18.26;69.57
66801;BME280;53703;50.326;19.122;2023-09-30T15:14:59;99355.34;;;18.31;69.41
66801;BME280;53703;50.326;19.122;2023-09-30T15:17:53;99355.20;;;18.31;69.01